Time;durP1;ratioP1;P1;durP2;ratioP2;P2;SDS_P1;SDS_P2;PMS_P1;PMS_P2;Temp;Humidity;BMP_temperature;BMP_pressure;BME280_temperature;BME280_humidity;BME280_pressure;Samples;Min_cycle;Max_cycle;Signal;HPM_P1;HPM_P2
2022/10/29 00:00:41;;;;;;;11.18;6.30;;;18.80;99.00;;;;;;5018511;28;20034;-63
2022/10/29 00:03:27;;;;;;;12.90;5.90;;;18.60;99.20;;;;;;5004281;28;20486;-65
2022/10/29 00:06:13;;;;;;;12.80;6.20;;;18.60;99.40;;;;;;5031949;28;20039;-64
2022/10/29 00:08:59;;;;;;;11.60;6.50;;;18.50;99.60;;;;;;5031385;28;20030;-63
2022/10/29 00:11:45;;;;;;;10.73;6.25;;;18.40;99.70;;;;;;5030158;28;20052;-63
2022/10/29 00:14:31;;;;;;;12.75;6.07;;;18.40;99.70;;;;;;5017311;28;20036;-63
2022/10/29 00:17:17;;;;;;;12.73;6.88;;;18.30;99.80;;;;;;5016624;28;20064;-60
2022/10/29 00:20:04;;;;;;;15.07;6.63;;;18.40;99.90;;;;;;5017766;28;20677;-63
2022/10/29 00:22:54;;;;;;;11.38;6.55;;;18.30;99.90;;;;;;5017768;28;20128;-62
2022/10/29 00:25:39;;;;;;;12.60;6.57;;;18.20;99.90;;;;;;5002840;28;20105;-63
2022/10/29 00:28:26;;;;;;;12.57;6.25;;;18.20;99.90;;;;;;5017363;28;20034;-64
2022/10/29 00:31:17;;;;;;;15.95;6.82;;;18.10;99.90;;;;;;5017607;28;20037;-62
2022/10/29 00:34:03;;;;;;;16.10;6.75;;;18.10;99.90;;;;;;5031713;28;20086;-63
2022/10/29 00:36:49;;;;;;;14.65;7.60;;;18.00;99.90;;;;;;5002640;28;20045;-63
2022/10/29 00:39:35;;;;;;;10.15;7.22;;;17.90;99.90;;;;;;5018038;28;20048;-64
2022/10/29 00:42:21;;;;;;;14.23;7.03;;;17.80;99.90;;;;;;5003228;28;20033;-63
2022/10/29 00:45:17;;;;;;;12.00;7.03;;;17.90;99.90;;;;;;5016763;28;20417;-62
2022/10/29 00:48:03;;;;;;;13.23;7.13;;;17.80;99.90;;;;;;5011444;28;20061;-63
2022/10/29 00:50:50;;;;;;;17.27;7.68;;;17.70;99.90;;;;;;4988604;28;20064;-65
2022/10/29 00:53:40;;;;;;;8.73;5.82;;;17.70;99.90;;;;;;5003182;28;20037;-65
2022/10/29 00:56:28;;;;;;;13.80;6.53;;;17.70;99.90;;;;;;5016125;28;20493;-60
2022/10/29 00:59:16;;;;;;;15.63;7.05;;;17.70;99.90;;;;;;5031851;28;20036;-64
2022/10/29 01:02:05;;;;;;;14.90;6.78;;;17.70;99.90;;;;;;5015923;28;20037;-64
2022/10/29 01:04:52;;;;;;;9.43;5.85;;;17.70;99.90;;;;;;5016683;28;20493;-64
2022/10/29 01:07:38;;;;;;;12.13;6.30;;;17.70;99.90;;;;;;5031337;28;20440;-63
2022/10/29 01:10:52;;;;;;;12.10;7.07;;;17.60;99.90;;;;;;5029918;28;20053;-64
2022/10/29 01:14:05;;;;;;;12.98;6.63;;;17.70;99.90;;;;;;5016537;28;20018;-64
2022/10/29 01:17:02;;;;;;;15.23;6.75;;;17.70;99.90;;;;;;5031110;28;20117;-64
2022/10/29 01:20:03;;;;;;;12.02;6.65;;;17.60;99.90;;;;;;5030156;28;20101;-64
2022/10/29 01:23:27;;;;;;;10.25;6.35;;;17.60;99.90;;;;;;5016646;28;20055;-64
2022/10/29 01:26:27;;;;;;;13.80;6.55;;;17.60;99.90;;;;;;4997745;28;20180;-64
2022/10/29 01:29:32;;;;;;;12.20;6.38;;;17.60;99.90;;;;;;5006066;28;20490;-64
2022/10/29 01:32:47;;;;;;;10.05;6.38;;;17.60;99.90;;;;;;5031084;28;20044;-65
2022/10/29 01:35:33;;;;;;;12.65;6.43;;;17.50;99.90;;;;;;5031005;28;20021;-65
2022/10/29 01:38:50;;;;;;;10.35;5.97;;;17.50;99.90;;;;;;5029252;28;20455;-64
2022/10/29 01:41:54;;;;;;;11.18;6.72;;;17.60;99.90;;;;;;5010222;28;20029;-63
2022/10/29 01:44:53;;;;;;;10.70;6.55;;;17.60;99.90;;;;;;5020804;28;20065;-63
2022/10/29 01:47:45;;;;;;;10.73;6.72;;;17.60;99.90;;;;;;5029502;28;20022;-64
2022/10/29 01:50:33;;;;;;;13.88;6.95;;;17.60;99.90;;;;;;5015091;28;20033;-63
2022/10/29 01:53:20;;;;;;;15.48;6.38;;;17.60;99.90;;;;;;5016179;28;20693;-63
2022/10/29 01:56:06;;;;;;;14.50;6.97;;;17.70;99.90;;;;;;5015305;28;20025;-62
2022/10/29 01:58:56;;;;;;;9.18;7.50;;;17.60;99.90;;;;;;5001604;28;20030;-64
2022/10/29 02:02:10;;;;;;;12.73;7.00;;;17.60;99.90;;;;;;5030799;28;20017;-63
2022/10/29 02:05:05;;;;;;;14.68;6.82;;;17.50;99.90;;;;;;5030596;28;20021;-63
2022/10/29 02:07:56;;;;;;;10.40;6.88;;;17.50;99.90;;;;;;5015327;28;20064;-64
2022/10/29 02:11:02;;;;;;;11.63;6.32;;;17.50;99.90;;;;;;5030248;28;20498;-64
2022/10/29 02:14:01;;;;;;;16.17;7.05;;;17.50;99.90;;;;;;4993196;28;20042;-63
2022/10/29 02:16:48;;;;;;;12.32;6.78;;;17.50;99.90;;;;;;5015095;28;20112;-63
2022/10/29 02:19:35;;;;;;;13.20;7.57;;;17.50;99.90;;;;;;5000896;28;20168;-64
2022/10/29 02:22:21;;;;;;;11.40;7.20;;;17.60;99.90;;;;;;5015357;28;20080;-64
2022/10/29 02:25:08;;;;;;;12.15;7.38;;;17.50;99.90;;;;;;5028882;28;20029;-64
2022/10/29 02:27:54;;;;;;;10.30;6.72;;;17.50;99.90;;;;;;5014676;28;20031;-64
2022/10/29 02:30:40;;;;;;;11.90;7.45;;;17.50;99.90;;;;;;5009204;28;20488;-63
2022/10/29 02:33:26;;;;;;;11.98;7.25;;;17.50;99.90;;;;;;4998522;28;20037;-63
2022/10/29 02:36:12;;;;;;;15.32;7.32;;;17.40;99.90;;;;;;5018435;28;20026;-64
2022/10/29 02:38:58;;;;;;;10.23;6.72;;;17.30;99.90;;;;;;5018719;28;20053;-64
2022/10/29 02:41:44;;;;;;;10.73;7.63;;;17.30;99.90;;;;;;5018338;28;20029;-65
2022/10/29 02:44:30;;;;;;;15.18;7.43;;;17.20;99.90;;;;;;4998545;28;20498;-64
2022/10/29 02:47:16;;;;;;;15.77;7.63;;;17.30;99.90;;;;;;5012623;28;20037;-64
2022/10/29 02:50:02;;;;;;;11.48;7.13;;;17.30;99.90;;;;;;5032582;28;20033;-63
2022/10/29 02:52:48;;;;;;;14.27;7.20;;;17.20;99.90;;;;;;5017423;28;20025;-65
2022/10/29 02:55:34;;;;;;;21.75;8.10;;;17.20;99.90;;;;;;5018739;28;20037;-63
2022/10/29 02:58:20;;;;;;;10.65;7.15;;;17.20;99.90;;;;;;5019069;28;20068;-63
2022/10/29 03:01:06;;;;;;;11.30;6.97;;;17.20;99.90;;;;;;5018152;28;20411;-63
2022/10/29 03:03:51;;;;;;;13.20;8.98;;;17.20;99.90;;;;;;5032563;28;20026;-63
2022/10/29 03:06:37;;;;;;;16.08;7.63;;;17.30;99.90;;;;;;5018030;28;20021;-64
2022/10/29 03:09:23;;;;;;;15.88;8.20;;;17.20;99.90;;;;;;5018912;28;20040;-64
2022/10/29 03:12:09;;;;;;;14.15;7.97;;;17.20;99.90;;;;;;5017466;28;20117;-63
2022/10/29 03:14:55;;;;;;;16.65;7.75;;;17.10;99.90;;;;;;4998304;28;20033;-62
2022/10/29 03:17:41;;;;;;;11.73;7.32;;;17.10;99.90;;;;;;5012803;28;20022;-64
2022/10/29 03:20:27;;;;;;;10.52;6.65;;;17.10;99.90;;;;;;5012512;28;20045;-64
2022/10/29 03:23:13;;;;;;;13.50;6.90;;;17.00;99.90;;;;;;5013841;28;20029;-65
2022/10/29 03:25:59;;;;;;;16.90;11.77;;;17.00;99.90;;;;;;5018125;28;20029;-64
2022/10/29 03:28:45;;;;;;;23.67;12.23;;;17.00;99.90;;;;;;5031310;28;20524;-65
2022/10/29 03:31:31;;;;;;;16.05;9.80;;;17.00;99.90;;;;;;5017592;28;20457;-64
2022/10/29 03:34:17;;;;;;;13.85;8.65;;;17.00;99.90;;;;;;5019075;28;20505;-64
2022/10/29 03:37:03;;;;;;;12.05;8.10;;;17.00;99.90;;;;;;5003578;28;20057;-64
2022/10/29 03:39:49;;;;;;;11.57;7.18;;;17.00;99.90;;;;;;5031872;28;20045;-67
2022/10/29 03:42:36;;;;;;;14.98;8.27;;;17.00;99.90;;;;;;5003608;28;20076;-64
2022/10/29 03:45:22;;;;;;;12.77;6.95;;;17.00;99.90;;;;;;5012603;28;20057;-64
2022/10/29 03:48:08;;;;;;;13.20;7.38;;;16.90;99.90;;;;;;4988568;28;20108;-63
2022/10/29 03:51:00;;;;;;;13.75;7.78;;;16.90;99.90;;;;;;5017243;28;20037;-64
2022/10/29 03:53:46;;;;;;;11.32;7.38;;;16.70;99.90;;;;;;5032452;28;20034;-63
2022/10/29 03:56:32;;;;;;;13.77;7.78;;;16.60;99.90;;;;;;5016785;28;20629;-63
2022/10/29 03:59:18;;;;;;;9.48;6.90;;;16.60;99.90;;;;;;5004940;28;20025;-63
2022/10/29 04:02:04;;;;;;;11.95;6.93;;;16.70;99.90;;;;;;5004784;28;20037;-64
2022/10/29 04:04:50;;;;;;;9.70;7.05;;;16.70;99.90;;;;;;5030883;28;20029;-64
2022/10/29 04:07:36;;;;;;;14.57;10.00;;;16.70;99.90;;;;;;5002851;28;20029;-67
2022/10/29 04:10:22;;;;;;;15.95;9.75;;;16.70;99.90;;;;;;4984218;28;20038;-63
2022/10/29 04:13:08;;;;;;;11.77;8.35;;;16.70;99.90;;;;;;5012204;28;20021;-63
2022/10/29 04:15:54;;;;;;;10.77;7.03;;;16.70;99.90;;;;;;5017192;28;20464;-64
2022/10/29 04:18:40;;;;;;;13.18;7.70;;;16.60;99.90;;;;;;5030831;28;20020;-65
2022/10/29 04:21:26;;;;;;;9.85;6.55;;;16.50;99.90;;;;;;4991475;28;20033;-64
2022/10/29 04:24:12;;;;;;;16.60;7.50;;;16.50;99.90;;;;;;5030858;28;20021;-64
2022/10/29 04:26:58;;;;;;;12.82;7.00;;;16.40;99.90;;;;;;5030786;28;20406;-63
2022/10/29 04:29:44;;;;;;;11.48;6.60;;;16.30;99.90;;;;;;5017389;28;20033;-64
2022/10/29 04:32:30;;;;;;;16.17;11.23;;;16.20;99.90;;;;;;5016213;28;20037;-67
2022/10/29 04:35:16;;;;;;;17.25;11.68;;;16.20;99.90;;;;;;4997321;28;20037;-63
2022/10/29 04:38:09;;;;;;;13.98;8.52;;;16.20;99.90;;;;;;5003227;28;20022;-64
2022/10/29 04:40:59;;;;;;;10.35;7.47;;;16.30;99.90;;;;;;5030779;28;20123;-64
2022/10/29 04:43:45;;;;;;;11.15;7.90;;;16.40;99.90;;;;;;5030768;28;20399;-64
2022/10/29 04:46:31;;;;;;;16.08;9.13;;;16.40;99.90;;;;;;5032002;28;20034;-64
2022/10/29 04:49:17;;;;;;;16.10;8.52;;;16.30;99.90;;;;;;4997069;28;20065;-64
2022/10/29 04:52:03;;;;;;;11.50;8.15;;;16.30;99.90;;;;;;5010530;28;20548;-65
2022/10/29 04:54:49;;;;;;;16.27;8.23;;;16.20;99.90;;;;;;5030025;28;20041;-64
2022/10/29 04:57:35;;;;;;;14.10;7.35;;;16.20;99.90;;;;;;5027549;28;20032;-63
2022/10/29 05:00:22;;;;;;;12.30;7.93;;;16.10;99.90;;;;;;5028078;28;20078;-63
2022/10/29 05:03:08;;;;;;;11.80;7.40;;;16.10;99.90;;;;;;5006509;28;20037;-63
2022/10/29 05:05:54;;;;;;;10.18;6.10;;;16.10;99.90;;;;;;5023280;28;20025;-64
2022/10/29 05:08:40;;;;;;;9.70;6.07;;;16.10;99.90;;;;;;5042029;28;20034;-67
2022/10/29 05:11:26;;;;;;;10.73;6.40;;;16.10;99.90;;;;;;5016777;28;20045;-64
2022/10/29 05:14:12;;;;;;;12.95;6.57;;;16.20;99.90;;;;;;5037757;28;20043;-64
2022/10/29 05:16:58;;;;;;;12.32;7.03;;;16.20;99.90;;;;;;5035930;28;20078;-64
2022/10/29 05:19:43;;;;;;;11.85;7.38;;;16.20;99.90;;;;;;5028615;28;20033;-64
2022/10/29 05:22:32;;;;;;;20.75;12.73;;;16.20;99.90;;;;;;5015620;28;20022;-66
2022/10/29 05:25:17;;;;;;;16.85;8.48;;;16.10;99.90;;;;;;5002887;28;20030;-66
2022/10/29 05:28:17;;;;;;;11.35;7.40;;;16.10;99.90;;;;;;5029972;28;20028;-66
2022/10/29 05:31:03;;;;;;;12.35;7.65;;;16.00;99.90;;;;;;5030822;28;20406;-65
2022/10/29 05:33:49;;;;;;;13.40;6.95;;;15.90;99.90;;;;;;5002387;28;20509;-64
2022/10/29 05:36:35;;;;;;;10.65;7.00;;;15.80;99.90;;;;;;5030063;28;20490;-65
2022/10/29 05:39:21;;;;;;;15.60;8.27;;;15.70;99.90;;;;;;5029770;28;20494;-64
2022/10/29 05:42:07;;;;;;;11.25;7.43;;;15.80;99.90;;;;;;5029813;28;20376;-64
2022/10/29 05:44:53;;;;;;;10.00;6.70;;;15.80;99.90;;;;;;5015599;28;20033;-67
2022/10/29 05:47:39;;;;;;;11.75;6.82;;;15.90;99.90;;;;;;5002859;28;20463;-64
2022/10/29 05:50:26;;;;;;;10.05;6.38;;;15.90;99.90;;;;;;5022499;28;20285;-65
2022/10/29 05:53:13;;;;;;;12.55;6.78;;;15.90;99.90;;;;;;5004377;28;20091;-64
2022/10/29 05:55:59;;;;;;;9.57;7.35;;;15.90;99.90;;;;;;5047544;28;20691;-65
2022/10/29 05:58:49;;;;;;;14.35;7.10;;;15.90;99.90;;;;;;5038089;28;20080;-65
2022/10/29 06:01:34;;;;;;;9.45;6.35;;;15.70;99.90;;;;;;5015836;28;20026;-65
2022/10/29 06:04:20;;;;;;;10.70;6.30;;;15.70;99.90;;;;;;5002090;28;20025;-65
2022/10/29 06:07:06;;;;;;;13.93;6.95;;;15.70;99.90;;;;;;5002330;28;20030;-63
2022/10/29 06:09:52;;;;;;;17.00;7.97;;;15.80;99.90;;;;;;5001589;28;20083;-62
2022/10/29 06:12:38;;;;;;;13.75;7.10;;;15.90;99.90;;;;;;5000599;28;20032;-63
2022/10/29 06:15:24;;;;;;;14.95;8.40;;;16.00;99.90;;;;;;5002335;28;20029;-64
2022/10/29 06:18:10;;;;;;;9.07;6.60;;;15.90;99.90;;;;;;5014942;28;20130;-64
2022/10/29 06:20:58;;;;;;;13.25;8.95;;;15.80;99.90;;;;;;5032610;28;20436;-65
2022/10/29 06:23:44;;;;;;;46.97;29.25;;;15.70;99.90;;;;;;5027245;28;20035;-64
2022/10/29 06:26:30;;;;;;;25.73;14.45;;;15.70;99.90;;;;;;5015248;28;20030;-64
2022/10/29 06:29:16;;;;;;;13.20;8.07;;;15.70;99.90;;;;;;4983115;28;20034;-66
2022/10/29 06:32:02;;;;;;;10.27;7.47;;;15.70;99.90;;;;;;4998730;28;20452;-64
2022/10/29 06:34:48;;;;;;;11.73;7.63;;;15.70;99.90;;;;;;5015450;28;20104;-64
2022/10/29 06:37:36;;;;;;;11.65;8.15;;;15.60;99.90;;;;;;4995521;28;20034;-64
2022/10/29 06:40:22;;;;;;;10.18;7.40;;;15.50;99.90;;;;;;4997549;28;20026;-63
2022/10/29 06:43:10;;;;;;;10.27;7.10;;;15.50;99.90;;;;;;5013702;28;20022;-64
2022/10/29 06:45:56;;;;;;;14.68;7.35;;;15.40;99.90;;;;;;5002202;28;20026;-63
2022/10/29 06:48:42;;;;;;;12.90;7.32;;;15.50;99.90;;;;;;5028794;28;20532;-64
2022/10/29 06:51:28;;;;;;;12.90;7.40;;;15.40;99.90;;;;;;5014142;28;20559;-64
2022/10/29 06:54:14;;;;;;;10.70;6.25;;;15.40;99.90;;;;;;5001315;28;20103;-66
2022/10/29 06:57:00;;;;;;;11.52;7.05;;;15.40;99.90;;;;;;5014828;28;20068;-64
2022/10/29 06:59:46;;;;;;;10.70;7.28;;;15.50;99.90;;;;;;5014750;28;20033;-64
2022/10/29 07:02:32;;;;;;;12.07;7.32;;;15.50;99.90;;;;;;4995532;28;20514;-64
2022/10/29 07:05:18;;;;;;;11.90;7.55;;;15.60;99.90;;;;;;4998269;28;20029;-63
2022/10/29 07:08:04;;;;;;;12.38;7.70;;;15.60;99.90;;;;;;5011896;28;20046;-63
2022/10/29 07:10:51;;;;;;;13.52;7.78;;;15.70;99.90;;;;;;5021892;28;20029;-65
2022/10/29 07:13:37;;;;;;;14.57;9.32;;;15.70;99.90;;;;;;5017404;28;20080;-63
2022/10/29 07:16:23;;;;;;;12.07;7.88;;;15.70;99.90;;;;;;4999055;28;20033;-63
2022/10/29 07:19:09;;;;;;;14.57;8.43;;;15.60;99.90;;;;;;5018808;28;20579;-65
2022/10/29 07:21:55;;;;;;;15.48;8.10;;;15.60;99.90;;;;;;5014126;28;20041;-63
2022/10/29 07:24:41;;;;;;;11.05;7.55;;;15.70;99.90;;;;;;5030169;28;20048;-62
2022/10/29 07:27:27;;;;;;;47.60;38.70;;;15.80;99.90;;;;;;5030495;28;20460;-65
2022/10/29 07:30:13;;;;;;;42.85;29.48;;;15.80;99.90;;;;;;5031058;28;20641;-65
2022/10/29 07:32:59;;;;;;;25.55;17.88;;;16.00;99.90;;;;;;5030468;28;20036;-64
2022/10/29 07:35:45;;;;;;;17.40;11.18;;;16.00;99.90;;;;;;5015230;28;20072;-64
2022/10/29 07:38:31;;;;;;;12.52;8.65;;;16.10;99.90;;;;;;5021837;28;20029;-64
2022/10/29 07:41:17;;;;;;;9.82;8.10;;;16.20;99.90;;;;;;5019450;28;20025;-64
2022/10/29 07:44:03;;;;;;;11.55;7.18;;;16.30;99.90;;;;;;5016275;28;20026;-63
2022/10/29 07:46:49;;;;;;;13.65;7.38;;;16.40;99.90;;;;;;5029762;28;20509;-63
2022/10/29 07:49:35;;;;;;;12.95;8.00;;;16.40;99.90;;;;;;5003721;28;20034;-63
2022/10/29 07:52:20;;;;;;;15.48;7.65;;;16.40;99.90;;;;;;5015582;28;20029;-63
2022/10/29 07:55:07;;;;;;;11.68;8.18;;;16.50;99.90;;;;;;5013370;28;20029;-64
2022/10/29 07:58:00;;;;;;;14.00;8.90;;;16.60;99.90;;;;;;5017275;28;20034;-63
2022/10/29 08:00:45;;;;;;;48.45;37.17;;;16.70;99.90;;;;;;5030261;28;20482;-63
2022/10/29 08:03:32;;;;;;;34.78;26.92;;;16.70;99.90;;;;;;5004300;28;20037;-63
2022/10/29 08:06:18;;;;;;;23.88;15.98;;;16.80;99.90;;;;;;5007599;28;20040;-64
2022/10/29 08:09:04;;;;;;;18.92;10.98;;;16.80;99.90;;;;;;5018055;28;20064;-65
2022/10/29 08:11:50;;;;;;;12.80;9.02;;;16.80;99.90;;;;;;5032259;28;20112;-64
2022/10/29 08:14:36;;;;;;;12.98;7.43;;;16.80;99.90;;;;;;5033314;28;20037;-63
2022/10/29 08:17:22;;;;;;;14.30;9.77;;;16.90;99.90;;;;;;5016795;28;20026;-64
2022/10/29 08:20:08;;;;;;;21.20;12.82;;;16.90;99.90;;;;;;5003273;28;20490;-63
2022/10/29 08:22:57;;;;;;;17.38;9.98;;;16.90;99.90;;;;;;5004012;28;20080;-63
2022/10/29 08:25:44;;;;;;;11.82;7.95;;;16.90;99.90;;;;;;5017314;28;20039;-64
2022/10/29 08:28:30;;;;;;;12.77;8.20;;;16.90;99.90;;;;;;5011565;28;20040;-62
2022/10/29 08:31:16;;;;;;;17.15;11.68;;;17.00;99.90;;;;;;5002871;28;20041;-64
2022/10/29 08:34:02;;;;;;;21.60;11.15;;;17.20;99.90;;;;;;5003791;28;20124;-65
2022/10/29 08:36:47;;;;;;;20.08;10.05;;;17.30;99.90;;;;;;5030262;28;20030;-63
2022/10/29 08:39:33;;;;;;;13.20;8.77;;;17.40;99.90;;;;;;5011723;28;20083;-63
2022/10/29 08:42:34;;;;;;;19.17;9.35;;;17.50;99.90;;;;;;5014646;28;20029;-64
2022/10/29 08:45:24;;;;;;;17.23;9.90;;;17.60;99.90;;;;;;5036748;28;20025;-64
2022/10/29 08:48:32;;;;;;;17.90;10.00;;;17.70;99.90;;;;;;5041065;28;20036;-64
2022/10/29 08:51:27;;;;;;;21.23;9.52;;;17.60;99.90;;;;;;5025040;28;20072;-64
2022/10/29 08:54:14;;;;;;;15.38;9.43;;;17.60;99.90;;;;;;5031494;28;20028;-64
2022/10/29 08:57:20;;;;;;;14.70;8.40;;;17.60;99.90;;;;;;5026819;28;20021;-64
2022/10/29 09:00:14;;;;;;;20.13;9.10;;;17.70;99.90;;;;;;5019623;28;20716;-62
2022/10/29 09:03:11;;;;;;;22.50;10.10;;;17.70;99.90;;;;;;5026204;28;20040;-64
2022/10/29 09:06:16;;;;;;;17.10;9.02;;;17.70;99.90;;;;;;5016625;28;20116;-62
2022/10/29 09:09:40;;;;;;;12.75;8.40;;;17.70;99.90;;;;;;5030127;28;20025;-63
2022/10/29 09:13:11;;;;;;;14.25;8.43;;;17.90;99.90;;;;;;5013827;28;20112;-64
2022/10/29 09:16:29;;;;;;;20.45;9.40;;;17.90;99.90;;;;;;4993188;28;20045;-64
2022/10/29 09:19:21;;;;;;;19.55;9.27;;;17.90;99.90;;;;;;5016411;28;20601;-64
2022/10/29 09:22:15;;;;;;;17.20;9.93;;;17.90;99.90;;;;;;5037151;28;20033;-64
2022/10/29 09:25:17;;;;;;;16.88;9.38;;;17.80;99.90;;;;;;5039511;28;20013;-64
2022/10/29 09:28:31;;;;;;;20.02;9.05;;;17.80;99.90;;;;;;5027187;28;20425;-66
2022/10/29 09:31:33;;;;;;;22.77;8.88;;;17.90;99.90;;;;;;5039421;28;20044;-64
2022/10/29 09:34:47;;;;;;;15.48;9.63;;;17.90;99.90;;;;;;5034901;28;20021;-64
2022/10/29 09:37:42;;;;;;;16.10;8.68;;;18.00;99.90;;;;;;4996949;28;20034;-63
2022/10/29 09:40:32;;;;;;;16.08;8.77;;;18.10;99.90;;;;;;5023258;28;20022;-62
2022/10/29 09:43:32;;;;;;;12.77;8.45;;;18.30;99.90;;;;;;5037770;28;20044;-63
2022/10/29 09:46:36;;;;;;;12.05;8.50;;;18.30;99.90;;;;;;5027553;28;20025;-65
2022/10/29 09:49:34;;;;;;;10.15;8.45;;;18.40;99.90;;;;;;5014926;28;20057;-64
2022/10/29 09:52:22;;;;;;;14.35;7.95;;;18.40;99.90;;;;;;5010291;28;20041;-63
2022/10/29 09:55:24;;;;;;;15.43;8.45;;;18.60;99.90;;;;;;5015219;28;20402;-65
2022/10/29 09:58:20;;;;;;;14.05;8.95;;;18.70;99.90;;;;;;5024579;28;20037;-64
2022/10/29 10:01:06;;;;;;;17.48;11.20;;;18.80;99.90;;;;;;5003608;28;20063;-66
2022/10/29 10:03:54;;;;;;;16.98;9.65;;;18.90;99.90;;;;;;5014386;28;20021;-65
2022/10/29 10:07:03;;;;;;;13.93;9.23;;;19.00;99.90;;;;;;5014994;28;20497;-63
2022/10/29 10:09:53;;;;;;;12.85;7.60;;;19.00;99.90;;;;;;4991325;28;20038;-65
2022/10/29 10:12:44;;;;;;;15.07;8.82;;;19.10;99.90;;;;;;5029196;28;20044;-65
2022/10/29 10:15:35;;;;;;;14.38;8.18;;;19.20;99.90;;;;;;5015251;28;20068;-63
2022/10/29 10:18:25;;;;;;;17.83;9.80;;;19.30;99.90;;;;;;5001561;28;20513;-63
2022/10/29 10:21:32;;;;;;;15.93;8.68;;;19.40;99.90;;;;;;5024112;28;20590;-64
2022/10/29 10:24:31;;;;;;;13.27;8.73;;;19.40;99.90;;;;;;5018629;28;20025;-62
2022/10/29 10:27:16;;;;;;;12.90;7.60;;;19.40;99.90;;;;;;5015362;28;20044;-66
2022/10/29 10:30:02;;;;;;;13.75;8.77;;;19.40;99.90;;;;;;5012665;28;20045;-63
2022/10/29 10:32:48;;;;;;;19.83;9.48;;;19.40;99.90;;;;;;5027268;28;20119;-63
2022/10/29 10:35:34;;;;;;;18.65;8.88;;;19.30;99.90;;;;;;5013718;28;20490;-64
2022/10/29 10:38:20;;;;;;;16.27;9.20;;;19.30;99.90;;;;;;4998601;28;20398;-64
2022/10/29 10:41:09;;;;;;;21.48;8.95;;;19.40;99.90;;;;;;4994145;28;20030;-65
2022/10/29 10:44:03;;;;;;;16.20;9.10;;;19.40;99.90;;;;;;5042030;28;20141;-65
2022/10/29 10:46:53;;;;;;;17.75;9.95;;;19.50;99.90;;;;;;5023652;28;20034;-64
2022/10/29 10:49:39;;;;;;;19.98;10.90;;;19.60;99.90;;;;;;5012058;28;20086;-64
2022/10/29 10:52:29;;;;;;;19.70;10.85;;;19.60;99.90;;;;;;5014002;28;20153;-64
2022/10/29 10:55:26;;;;;;;14.82;9.20;;;19.70;99.90;;;;;;5014820;28;20033;-65
2022/10/29 10:58:34;;;;;;;15.77;9.95;;;19.80;99.90;;;;;;5040403;28;20432;-62
2022/10/29 11:01:42;;;;;;;15.40;9.77;;;20.00;99.90;;;;;;5030885;28;20040;-63
2022/10/29 11:04:35;;;;;;;18.75;10.05;;;20.00;99.90;;;;;;5031154;28;20033;-64
2022/10/29 11:07:23;;;;;;;16.50;11.05;;;20.00;99.90;;;;;;5039003;28;20025;-63
2022/10/29 11:10:12;;;;;;;18.70;12.35;;;20.20;99.90;;;;;;5029190;28;20057;-64
2022/10/29 11:13:01;;;;;;;17.23;10.90;;;20.20;99.90;;;;;;5039098;28;20063;-65
2022/10/29 11:16:07;;;;;;;16.33;9.32;;;20.30;99.90;;;;;;5046548;28;20477;-63
2022/10/29 11:18:55;;;;;;;;;;;20.30;99.90;;;;;;5020971;28;20402;-63
2022/10/29 11:21:48;;;;;;;14.88;8.48;;;20.30;99.90;;;;;;5035623;28;19915;-63
2022/10/29 11:24:59;;;;;;;17.55;10.25;;;20.20;99.90;;;;;;5027611;28;20098;-65
2022/10/29 11:27:55;;;;;;;17.55;8.38;;;20.20;99.90;;;;;;5029274;28;20091;-64
2022/10/29 11:30:54;;;;;;;20.08;9.85;;;20.30;99.90;;;;;;5030691;28;20405;-64
2022/10/29 11:34:01;;;;;;;14.98;8.43;;;20.30;99.90;;;;;;5031577;28;20476;-65
2022/10/29 11:37:30;;;;;;;17.83;9.18;;;20.50;99.90;;;;;;5026056;28;20403;-65
2022/10/29 11:40:46;;;;;;;17.85;9.75;;;20.70;99.90;;;;;;5031978;28;20648;-64
2022/10/29 11:43:32;;;;;;;21.08;9.52;;;20.90;99.90;;;;;;5012471;28;20036;-63
2022/10/29 11:46:56;;;;;;;21.67;9.32;;;21.00;99.90;;;;;;5018523;28;20021;-66
2022/10/29 11:50:01;;;;;;;16.23;8.70;;;21.00;99.90;;;;;;5038317;28;20488;-64
2022/10/29 11:52:54;;;;;;;25.17;8.20;;;21.00;99.90;;;;;;5013264;28;20482;-67
2022/10/29 11:56:17;;;;;;;15.43;7.65;;;21.00;99.90;;;;;;5036336;28;20497;-66
2022/10/29 11:59:17;;;;;;;19.70;8.38;;;21.00;99.90;;;;;;5031156;28;20028;-65
2022/10/29 12:02:20;;;;;;;15.68;8.65;;;21.00;99.90;;;;;;5038178;28;20026;-64
2022/10/29 12:05:29;;;;;;;17.42;8.30;;;21.00;99.90;;;;;;5030180;28;20504;-66
2022/10/29 12:08:41;;;;;;;12.45;7.70;;;21.00;99.90;;;;;;5008350;28;20490;-66
2022/10/29 12:11:55;;;;;;;16.42;8.40;;;21.10;99.90;;;;;;5016145;28;20025;-66
2022/10/29 12:14:50;;;;;;;16.23;7.65;;;21.00;99.90;;;;;;4998328;28;20034;-65
2022/10/29 12:17:51;;;;;;;19.98;7.78;;;21.10;99.10;;;;;;5020066;28;20041;-64
2022/10/29 12:20:55;;;;;;;17.73;7.53;;;21.20;98.70;;;;;;5031160;28;20048;-65
2022/10/29 12:24:01;;;;;;;16.90;7.90;;;21.00;99.00;;;;;;5031621;28;20502;-65
2022/10/29 12:27:26;;;;;;;14.05;8.15;;;20.90;99.20;;;;;;5029012;28;20040;-65
2022/10/29 12:30:16;;;;;;;14.75;7.72;;;21.00;99.20;;;;;;5012693;28;20046;-65
2022/10/29 12:33:24;;;;;;;17.05;7.63;;;21.00;99.40;;;;;;5007241;28;20669;-66
2022/10/29 12:36:34;;;;;;;16.10;7.43;;;21.00;99.30;;;;;;5017568;28;20460;-65
2022/10/29 12:39:34;;;;;;;18.88;7.82;;;20.90;99.40;;;;;;5025658;28;20075;-65
2022/10/29 12:42:24;;;;;;;23.48;10.02;;;20.90;99.60;;;;;;4999020;28;20053;-65
2022/10/29 12:45:56;;;;;;;19.35;8.80;;;20.80;99.90;;;;;;5020847;28;20113;-64
2022/10/29 12:49:09;;;;;;;15.82;8.35;;;20.90;99.80;;;;;;5030716;28;20159;-65
2022/10/29 12:52:06;;;;;;;23.35;9.10;;;20.90;99.60;;;;;;5016748;28;20033;-64
2022/10/29 12:54:53;;;;;;;19.92;9.68;;;20.90;99.70;;;;;;5017740;28;20037;-65
2022/10/29 12:57:39;;;;;;;13.25;8.40;;;20.90;99.60;;;;;;5002629;28;20584;-66
2022/10/29 13:00:32;;;;;;;17.83;8.43;;;21.00;99.40;;;;;;5014743;28;20034;-66
2022/10/29 13:04:02;;;;;;;20.45;8.98;;;21.10;99.20;;;;;;5030870;28;20528;-65
2022/10/29 13:07:05;;;;;;;16.75;8.45;;;21.10;99.20;;;;;;5030544;28;20037;-65
2022/10/29 13:10:23;;;;;;;16.80;9.00;;;21.10;99.30;;;;;;5031141;28;20047;-65
2022/10/29 13:13:15;;;;;;;23.05;10.68;;;21.10;99.30;;;;;;5030817;28;20049;-66
2022/10/29 13:16:05;;;;;;;16.75;8.50;;;21.00;99.40;;;;;;5015366;28;20037;-64
2022/10/29 13:19:04;;;;;;;17.45;9.10;;;21.00;99.30;;;;;;5030879;28;20064;-65
2022/10/29 13:22:02;;;;;;;19.70;8.52;;;20.90;99.10;;;;;;5030351;28;20095;-64
2022/10/29 13:25:26;;;;;;;15.20;8.98;;;20.90;99.30;;;;;;5003160;28;20032;-65
2022/10/29 13:28:12;;;;;;;21.17;8.38;;;20.80;99.30;;;;;;5029342;28;20017;-65
2022/10/29 13:30:58;;;;;;;18.55;9.07;;;20.90;99.20;;;;;;5029616;28;20026;-66
2022/10/29 13:33:44;;;;;;;17.05;7.97;;;20.90;99.30;;;;;;5029517;28;20664;-65
2022/10/29 13:36:36;;;;;;;17.38;7.50;;;20.80;99.30;;;;;;5029670;28;20065;-65
2022/10/29 13:39:22;;;;;;;15.55;8.23;;;20.90;99.50;;;;;;5030107;28;20021;-65
2022/10/29 13:42:11;;;;;;;17.98;8.38;;;20.90;99.50;;;;;;5002363;28;20026;-64
2022/10/29 13:44:58;;;;;;;15.95;8.65;;;21.00;99.40;;;;;;5016014;28;20087;-65
2022/10/29 13:47:45;;;;;;;16.25;9.25;;;21.00;99.40;;;;;;5001905;28;20072;-65
2022/10/29 13:50:33;;;;;;;18.15;8.93;;;21.10;99.30;;;;;;5003296;28;20168;-65
2022/10/29 13:53:27;;;;;;;19.52;9.10;;;21.10;99.40;;;;;;5030883;28;20541;-65
2022/10/29 13:56:19;;;;;;;17.92;9.05;;;21.30;99.20;;;;;;5017392;28;20025;-64
2022/10/29 13:59:12;;;;;;;20.15;9.25;;;21.50;99.10;;;;;;5029699;28;20482;-65
2022/10/29 14:02:24;;;;;;;15.30;9.05;;;21.80;98.80;;;;;;5029676;28;20474;-68
2022/10/29 14:05:13;;;;;;;14.77;8.88;;;22.10;98.50;;;;;;5029852;28;20028;-65
2022/10/29 14:08:17;;;;;;;21.45;9.38;;;22.20;98.40;;;;;;5029336;28;20102;-66
2022/10/29 14:11:19;;;;;;;18.17;8.15;;;22.10;98.00;;;;;;5015495;28;20063;-64
2022/10/29 14:14:38;;;;;;;14.80;9.85;;;21.90;98.40;;;;;;5015049;28;20033;-65
2022/10/29 14:17:24;;;;;;;14.18;9.43;;;21.80;98.50;;;;;;5015187;28;20079;-65
2022/10/29 14:20:28;;;;;;;16.20;8.70;;;21.70;98.80;;;;;;5001508;28;20026;-65
2022/10/29 14:23:14;;;;;;;13.32;8.48;;;21.50;99.10;;;;;;5013117;28;20516;-64
2022/10/29 14:26:02;;;;;;;15.57;9.80;;;21.40;99.30;;;;;;5023266;28;20034;-65
2022/10/29 14:28:48;;;;;;;13.88;9.20;;;21.40;99.70;;;;;;4996225;28;20042;-65
2022/10/29 14:31:34;;;;;;;13.43;8.85;;;21.30;99.70;;;;;;5010353;28;20098;-65
2022/10/29 14:34:25;;;;;;;17.20;8.23;;;21.20;99.80;;;;;;4998326;28;20037;-64
2022/10/29 14:37:35;;;;;;;16.02;8.55;;;21.20;99.90;;;;;;5014966;28;20045;-65
2022/10/29 14:40:21;;;;;;;11.85;8.55;;;21.10;99.90;;;;;;5006156;28;20021;-66
2022/10/29 14:43:21;;;;;;;16.25;8.90;;;21.10;99.90;;;;;;5002184;28;20083;-63